sensor_id;sensor_type;location;lat;lon;timestamp;pressure;altitude;pressure_sealevel;temperature;humidity
14253;BME280;7210;51.502;10.722;2023-03-18T00:02:00;99005.69;;;6.27;100.00
14253;BME280;7210;51.502;10.722;2023-03-18T00:04:28;99004.94;;;6.20;100.00
14253;BME280;7210;51.502;10.722;2023-03-18T00:06:55;99002.56;;;6.12;100.00
14253;BME280;7210;51.502;10.722;2023-03-18T00:09:23;98992.91;;;6.06;100.00
14253;BME280;7210;51.502;10.722;2023-03-18T00:11:52;98995.78;;;5.98;100.00
14253;BME280;7210;51.502;10.722;2023-03-18T00:14:21;98992.59;;;5.96;100.00
14253;BME280;7210;51.502;10.722;2023-03-18T00:16:49;98997.84;;;5.96;100.00
14253;BME280;7210;51.502;10.722;2023-03-18T00:19:16;99005.50;;;5.97;100.00
14253;BME280;7210;51.502;10.722;2023-03-18T00:21:49;98999.88;;;5.94;100.00
14253;BME280;7210;51.502;10.722;2023-03-18T00:24:18;99018.81;;;5.96;100.00
14253;BME280;7210;51.502;10.722;2023-03-18T00:26:46;99012.56;;;5.97;100.00
14253;BME280;7210;51.502;10.722;2023-03-18T00:29:16;99011.53;;;5.98;100.00
14253;BME280;7210;51.502;10.722;2023-03-18T00:31:43;99018.00;;;6.02;100.00
14253;BME280;7210;51.502;10.722;2023-03-18T00:34:11;99024.84;;;6.03;100.00
14253;BME280;7210;51.502;10.722;2023-03-18T00:36:42;99031.69;;;6.04;100.00
14253;BME280;7210;51.502;10.722;2023-03-18T00:39:13;99028.03;;;6.05;100.00
14253;BME280;7210;51.502;10.722;2023-03-18T00:41:41;99022.38;;;6.08;100.00
14253;BME280;7210;51.502;10.722;2023-03-18T00:44:08;99027.59;;;6.08;100.00
14253;BME280;7210;51.502;10.722;2023-03-18T00:46:37;99022.97;;;6.10;100.00
14253;BME280;7210;51.502;10.722;2023-03-18T00:49:07;99025.97;;;6.13;100.00
14253;BME280;7210;51.502;10.722;2023-03-18T00:51:36;99024.72;;;6.16;100.00
14253;BME280;7210;51.502;10.722;2023-03-18T00:54:10;99029.56;;;6.19;100.00
14253;BME280;7210;51.502;10.722;2023-03-18T00:56:39;99026.09;;;6.25;100.00
14253;BME280;7210;51.502;10.722;2023-03-18T00:59:07;99016.66;;;6.17;100.00
14253;BME280;7210;51.502;10.722;2023-03-18T01:01:35;99020.25;;;6.23;100.00
14253;BME280;7210;51.502;10.722;2023-03-18T01:04:05;99029.13;;;6.22;100.00
14253;BME280;7210;51.502;10.722;2023-03-18T01:06:35;99019.88;;;6.19;100.00
14253;BME280;7210;51.502;10.722;2023-03-18T01:09:05;99026.38;;;6.17;100.00
14253;BME280;7210;51.502;10.722;2023-03-18T01:11:34;99021.13;;;6.17;100.00
14253;BME280;7210;51.502;10.722;2023-03-18T01:14:01;99029.97;;;6.16;100.00
14253;BME280;7210;51.502;10.722;2023-03-18T01:16:29;99032.00;;;6.14;100.00
14253;BME280;7210;51.502;10.722;2023-03-18T01:18:56;99032.44;;;6.11;100.00
14253;BME280;7210;51.502;10.722;2023-03-18T01:21:26;99035.91;;;6.05;100.00
14253;BME280;7210;51.502;10.722;2023-03-18T01:23:57;99027.88;;;6.00;100.00
14253;BME280;7210;51.502;10.722;2023-03-18T01:26:26;99026.09;;;5.94;100.00
14253;BME280;7210;51.502;10.722;2023-03-18T01:28:56;99027.31;;;5.91;100.00
14253;BME280;7210;51.502;10.722;2023-03-18T01:31:36;99022.09;;;5.85;100.00
14253;BME280;7210;51.502;10.722;2023-03-18T01:34:09;99036.41;;;5.89;100.00
14253;BME280;7210;51.502;10.722;2023-03-18T01:36:49;99029.31;;;5.96;100.00
14253;BME280;7210;51.502;10.722;2023-03-18T01:39:18;99038.78;;;5.97;100.00
14253;BME280;7210;51.502;10.722;2023-03-18T01:41:47;99041.41;;;5.97;100.00
14253;BME280;7210;51.502;10.722;2023-03-18T01:44:22;99041.41;;;5.97;100.00
14253;BME280;7210;51.502;10.722;2023-03-18T01:46:53;99037.44;;;5.88;100.00
14253;BME280;7210;51.502;10.722;2023-03-18T01:49:26;99047.88;;;5.94;100.00
14253;BME280;7210;51.502;10.722;2023-03-18T01:52:01;99055.56;;;5.96;100.00
14253;BME280;7210;51.502;10.722;2023-03-18T01:54:36;99046.66;;;5.97;100.00
14253;BME280;7210;51.502;10.722;2023-03-18T01:57:04;99049.84;;;6.05;100.00
14253;BME280;7210;51.502;10.722;2023-03-18T01:59:37;99046.63;;;6.03;100.00
14253;BME280;7210;51.502;10.722;2023-03-18T02:02:09;99039.38;;;5.99;100.00
14253;BME280;7210;51.502;10.722;2023-03-18T02:04:44;99034.13;;;5.99;100.00
14253;BME280;7210;51.502;10.722;2023-03-18T02:07:16;99037.19;;;5.96;100.00
14253;BME280;7210;51.502;10.722;2023-03-18T02:09:46;99034.19;;;5.92;100.00
14253;BME280;7210;51.502;10.722;2023-03-18T02:12:18;99031.75;;;5.91;100.00
14253;BME280;7210;51.502;10.722;2023-03-18T02:14:48;99035.41;;;5.90;100.00
14253;BME280;7210;51.502;10.722;2023-03-18T02:17:20;99049.72;;;5.94;100.00
14253;BME280;7210;51.502;10.722;2023-03-18T02:20:04;99047.88;;;5.94;100.00
14253;BME280;7210;51.502;10.722;2023-03-18T02:22:42;99049.09;;;5.98;100.00
14253;BME280;7210;51.502;10.722;2023-03-18T02:25:23;99049.88;;;5.99;100.00
14253;BME280;7210;51.502;10.722;2023-03-18T02:27:58;99051.06;;;6.03;100.00
14253;BME280;7210;51.502;10.722;2023-03-18T02:30:33;99061.31;;;6.11;100.00
14253;BME280;7210;51.502;10.722;2023-03-18T02:33:04;99069.34;;;6.16;100.00
14253;BME280;7210;51.502;10.722;2023-03-18T02:35:34;99067.06;;;6.26;100.00
14253;BME280;7210;51.502;10.722;2023-03-18T02:38:02;99061.56;;;6.34;100.00
14253;BME280;7210;51.502;10.722;2023-03-18T02:40:33;99063.75;;;6.37;100.00
14253;BME280;7210;51.502;10.722;2023-03-18T02:43:25;99073.63;;;6.41;100.00
14253;BME280;7210;51.502;10.722;2023-03-18T02:46:25;99079.84;;;6.47;100.00
14253;BME280;7210;51.502;10.722;2023-03-18T02:48:58;99072.97;;;6.46;100.00
14253;BME280;7210;51.502;10.722;2023-03-18T02:51:27;99072.19;;;6.45;100.00
14253;BME280;7210;51.502;10.722;2023-03-18T02:54:03;99068.34;;;6.48;100.00
14253;BME280;7210;51.502;10.722;2023-03-18T02:56:31;99055.63;;;6.45;100.00
14253;BME280;7210;51.502;10.722;2023-03-18T02:59:00;99060.88;;;6.45;100.00
14253;BME280;7210;51.502;10.722;2023-03-18T03:01:28;99068.81;;;6.38;100.00
14253;BME280;7210;51.502;10.722;2023-03-18T03:03:55;99072.28;;;6.32;100.00
14253;BME280;7210;51.502;10.722;2023-03-18T03:06:22;99072.91;;;6.28;100.00
14253;BME280;7210;51.502;10.722;2023-03-18T03:11:43;99069.13;;;6.17;100.00
14253;BME280;7210;51.502;10.722;2023-03-18T03:14:17;99071.75;;;6.17;100.00
14253;BME280;7210;51.502;10.722;2023-03-18T03:16:47;99071.56;;;6.19;100.00
14253;BME280;7210;51.502;10.722;2023-03-18T03:22:06;99077.22;;;6.16;100.00
14253;BME280;7210;51.502;10.722;2023-03-18T03:24:34;99088.91;;;6.20;100.00
14253;BME280;7210;51.502;10.722;2023-03-18T03:27:01;99095.38;;;6.24;100.00
14253;BME280;7210;51.502;10.722;2023-03-18T03:29:30;99092.31;;;6.27;100.00
14253;BME280;7210;51.502;10.722;2023-03-18T03:31:57;99088.66;;;6.28;100.00
14253;BME280;7210;51.502;10.722;2023-03-18T03:34:24;99086.03;;;6.28;100.00
14253;BME280;7210;51.502;10.722;2023-03-18T03:36:52;99075.75;;;6.26;100.00
14253;BME280;7210;51.502;10.722;2023-03-18T03:39:19;99074.38;;;6.24;100.00
14253;BME280;7210;51.502;10.722;2023-03-18T03:41:46;99071.13;;;6.22;100.00
14253;BME280;7210;51.502;10.722;2023-03-18T03:44:15;99068.13;;;6.18;100.00
14253;BME280;7210;51.502;10.722;2023-03-18T03:46:49;99077.22;;;6.16;100.00
14253;BME280;7210;51.502;10.722;2023-03-18T03:49:17;99063.50;;;6.14;100.00
14253;BME280;7210;51.502;10.722;2023-03-18T03:51:45;99076.03;;;6.12;100.00
14253;BME280;7210;51.502;10.722;2023-03-18T03:54:12;99075.22;;;6.11;100.00
14253;BME280;7210;51.502;10.722;2023-03-18T03:56:41;99080.53;;;6.05;100.00
14253;BME280;7210;51.502;10.722;2023-03-18T03:59:08;99084.94;;;6.11;100.00
14253;BME280;7210;51.502;10.722;2023-03-18T04:01:56;99091.78;;;6.12;100.00
14253;BME280;7210;51.502;10.722;2023-03-18T04:04:23;99091.59;;;6.13;100.00
14253;BME280;7210;51.502;10.722;2023-03-18T04:06:50;99097.41;;;6.15;100.00
14253;BME280;7210;51.502;10.722;2023-03-18T04:09:18;99101.00;;;6.21;100.00
14253;BME280;7210;51.502;10.722;2023-03-18T04:11:45;99108.50;;;6.24;100.00
14253;BME280;7210;51.502;10.722;2023-03-18T04:14:13;99107.47;;;6.25;100.00
14253;BME280;7210;51.502;10.722;2023-03-18T04:16:41;99112.28;;;6.28;100.00
14253;BME280;7210;51.502;10.722;2023-03-18T04:19:11;99119.53;;;6.32;100.00
14253;BME280;7210;51.502;10.722;2023-03-18T04:21:38;99130.16;;;6.44;100.00
14253;BME280;7210;51.502;10.722;2023-03-18T04:24:07;99118.03;;;6.43;100.00
14253;BME280;7210;51.502;10.722;2023-03-18T04:26:34;99117.84;;;6.44;100.00
14253;BME280;7210;51.502;10.722;2023-03-18T04:29:03;99126.50;;;6.45;100.00
14253;BME280;7210;51.502;10.722;2023-03-18T04:31:31;99124.66;;;6.52;100.00
14253;BME280;7210;51.502;10.722;2023-03-18T04:33:59;99127.28;;;6.52;100.00
14253;BME280;7210;51.502;10.722;2023-03-18T04:36:29;99126.69;;;6.50;100.00
14253;BME280;7210;51.502;10.722;2023-03-18T04:38:56;99117.47;;;6.41;100.00
14253;BME280;7210;51.502;10.722;2023-03-18T04:41:25;99119.59;;;6.50;100.00
14253;BME280;7210;51.502;10.722;2023-03-18T04:43:55;99119.41;;;6.52;100.00
14253;BME280;7210;51.502;10.722;2023-03-18T04:46:31;99122.22;;;6.50;100.00
14253;BME280;7210;51.502;10.722;2023-03-18T04:48:58;99130.34;;;6.49;100.00
14253;BME280;7210;51.502;10.722;2023-03-18T04:51:27;99125.50;;;6.46;100.00
14253;BME280;7210;51.502;10.722;2023-03-18T04:53:56;99115.84;;;6.40;100.00
14253;BME280;7210;51.502;10.722;2023-03-18T04:56:28;99118.72;;;6.32;100.00
14253;BME280;7210;51.502;10.722;2023-03-18T04:58:57;99110.88;;;6.25;100.00
14253;BME280;7210;51.502;10.722;2023-03-18T05:01:29;99123.63;;;6.22;100.00
14253;BME280;7210;51.502;10.722;2023-03-18T05:03:56;99120.59;;;6.18;100.00
14253;BME280;7210;51.502;10.722;2023-03-18T05:06:34;99124.44;;;6.16;100.00
14253;BME280;7210;51.502;10.722;2023-03-18T05:09:09;99129.94;;;6.14;100.00
14253;BME280;7210;51.502;10.722;2023-03-18T05:11:37;99132.31;;;6.16;100.00
14253;BME280;7210;51.502;10.722;2023-03-18T05:14:18;99134.94;;;6.22;100.00
14253;BME280;7210;51.502;10.722;2023-03-18T05:16:47;99135.53;;;6.24;100.00
14253;BME280;7210;51.502;10.722;2023-03-18T05:19:15;99135.13;;;6.21;100.00
14253;BME280;7210;51.502;10.722;2023-03-18T05:21:54;99129.28;;;6.19;100.00
14253;BME280;7210;51.502;10.722;2023-03-18T05:24:23;99124.25;;;6.17;100.00
14253;BME280;7210;51.502;10.722;2023-03-18T05:26:50;99123.84;;;6.14;100.00
14253;BME280;7210;51.502;10.722;2023-03-18T05:29:20;99124.88;;;6.13;100.00
14253;BME280;7210;51.502;10.722;2023-03-18T05:32:11;99111.97;;;6.11;100.00
14253;BME280;7210;51.502;10.722;2023-03-18T05:34:41;99112.78;;;6.12;100.00
14253;BME280;7210;51.502;10.722;2023-03-18T05:37:13;99107.78;;;6.04;100.00
14253;BME280;7210;51.502;10.722;2023-03-18T05:39:46;99134.94;;;6.16;100.00
14253;BME280;7210;51.502;10.722;2023-03-18T05:42:22;99138.19;;;6.18;100.00
14253;BME280;7210;51.502;10.722;2023-03-18T05:44:50;99134.53;;;6.19;100.00
14253;BME280;7210;51.502;10.722;2023-03-18T05:47:21;99134.94;;;6.16;100.00
14253;BME280;7210;51.502;10.722;2023-03-18T05:50:05;99150.28;;;6.19;100.00
14253;BME280;7210;51.502;10.722;2023-03-18T05:52:35;99150.63;;;6.29;100.00
14253;BME280;7210;51.502;10.722;2023-03-18T05:55:06;99156.28;;;6.32;100.00
14253;BME280;7210;51.502;10.722;2023-03-18T05:57:37;99141.34;;;6.26;100.00
14253;BME280;7210;51.502;10.722;2023-03-18T06:00:10;99129.69;;;6.22;100.00
14253;BME280;7210;51.502;10.722;2023-03-18T06:02:47;99128.66;;;6.23;100.00
14253;BME280;7210;51.502;10.722;2023-03-18T06:05:16;99128.47;;;6.25;100.00
14253;BME280;7210;51.502;10.722;2023-03-18T06:07:46;99134.47;;;6.32;100.00
14253;BME280;7210;51.502;10.722;2023-03-18T06:10:14;99129.97;;;6.39;100.00
14253;BME280;7210;51.502;10.722;2023-03-18T06:12:46;99132.78;;;6.44;100.00
14253;BME280;7210;51.502;10.722;2023-03-18T06:15:13;99138.41;;;6.47;100.00
14253;BME280;7210;51.502;10.722;2023-03-18T06:17:40;99137.97;;;6.50;100.00
14253;BME280;7210;51.502;10.722;2023-03-18T06:20:10;99119.84;;;6.42;100.00
14253;BME280;7210;51.502;10.722;2023-03-18T06:22:39;99139.97;;;6.55;100.00
14253;BME280;7210;51.502;10.722;2023-03-18T06:25:08;99136.34;;;6.56;100.00
14253;BME280;7210;51.502;10.722;2023-03-18T06:27:38;99137.53;;;6.60;100.00
14253;BME280;7210;51.502;10.722;2023-03-18T06:30:08;99145.19;;;6.61;100.00
14253;BME280;7210;51.502;10.722;2023-03-18T06:32:37;99139.94;;;6.61;100.00
14253;BME280;7210;51.502;10.722;2023-03-18T06:35:06;99141.75;;;6.61;100.00
14253;BME280;7210;51.502;10.722;2023-03-18T06:37:36;99137.47;;;6.66;100.00
14253;BME280;7210;51.502;10.722;2023-03-18T06:40:08;99142.38;;;6.63;100.00
14253;BME280;7210;51.502;10.722;2023-03-18T06:42:35;99129.47;;;6.55;100.00
14253;BME280;7210;51.502;10.722;2023-03-18T06:45:10;99131.88;;;6.56;100.00
14253;BME280;7210;51.502;10.722;2023-03-18T06:47:45;99142.97;;;6.58;100.00
14253;BME280;7210;51.502;10.722;2023-03-18T06:50:15;99143.53;;;6.67;100.00
14253;BME280;7210;51.502;10.722;2023-03-18T06:52:43;99150.72;;;6.78;100.00
14253;BME280;7210;51.502;10.722;2023-03-18T06:55:16;99168.97;;;6.97;100.00
14253;BME280;7210;51.502;10.722;2023-03-18T06:57:45;99172.19;;;7.23;100.00
14253;BME280;7210;51.502;10.722;2023-03-18T07:00:21;99173.97;;;7.47;100.00
14253;BME280;7210;51.502;10.722;2023-03-18T07:02:49;99186.25;;;7.78;100.00
14253;BME280;7210;51.502;10.722;2023-03-18T07:05:19;99192.28;;;8.14;100.00
14253;BME280;7210;51.502;10.722;2023-03-18T07:07:47;99176.28;;;8.34;100.00
14253;BME280;7210;51.502;10.722;2023-03-18T07:10:20;99172.25;;;8.49;100.00
14253;BME280;7210;51.502;10.722;2023-03-18T07:12:49;99172.94;;;8.56;100.00
14253;BME280;7210;51.502;10.722;2023-03-18T07:15:19;99153.59;;;8.62;100.00
14253;BME280;7210;51.502;10.722;2023-03-18T07:17:49;99168.31;;;8.81;100.00
14253;BME280;7210;51.502;10.722;2023-03-18T07:20:19;99166.97;;;8.90;100.00
14253;BME280;7210;51.502;10.722;2023-03-18T07:22:48;99181.78;;;9.03;100.00
14253;BME280;7210;51.502;10.722;2023-03-18T07:25:17;99183.53;;;9.20;100.00
14253;BME280;7210;51.502;10.722;2023-03-18T07:27:45;99177.44;;;9.31;100.00
14253;BME280;7210;51.502;10.722;2023-03-18T07:30:13;99175.38;;;9.33;100.00
14253;BME280;7210;51.502;10.722;2023-03-18T07:32:41;99175.63;;;9.43;100.00
14253;BME280;7210;51.502;10.722;2023-03-18T07:35:09;99179.66;;;9.57;100.00
14253;BME280;7210;51.502;10.722;2023-03-18T07:37:38;99182.59;;;9.72;100.00
14253;BME280;7210;51.502;10.722;2023-03-18T07:40:07;99156.69;;;9.69;100.00
14253;BME280;7210;51.502;10.722;2023-03-18T07:42:37;99156.53;;;9.76;100.00
14253;BME280;7210;51.502;10.722;2023-03-18T07:45:06;99153.00;;;9.70;100.00
14253;BME280;7210;51.502;10.722;2023-03-18T07:47:33;99154.16;;;9.74;100.00
14253;BME280;7210;51.502;10.722;2023-03-18T07:50:01;99176.63;;;9.88;100.00
14253;BME280;7210;51.502;10.722;2023-03-18T07:52:29;99165.81;;;9.90;100.00
14253;BME280;7210;51.502;10.722;2023-03-18T07:54:56;99170.41;;;9.94;100.00
14253;BME280;7210;51.502;10.722;2023-03-18T07:57:23;99168.91;;;9.98;100.00
14253;BME280;7210;51.502;10.722;2023-03-18T07:59:53;99165.78;;;10.01;100.00
14253;BME280;7210;51.502;10.722;2023-03-18T08:02:20;99167.22;;;10.04;100.00
14253;BME280;7210;51.502;10.722;2023-03-18T08:04:48;99176.16;;;10.14;100.00
14253;BME280;7210;51.502;10.722;2023-03-18T08:07:16;99197.03;;;10.27;100.00
14253;BME280;7210;51.502;10.722;2023-03-18T08:09:43;99187.75;;;10.41;100.00
14253;BME280;7210;51.502;10.722;2023-03-18T08:12:11;99180.59;;;10.53;99.50
14253;BME280;7210;51.502;10.722;2023-03-18T08:14:38;99177.56;;;10.61;98.58
14253;BME280;7210;51.502;10.722;2023-03-18T08:17:06;99184.19;;;10.75;97.97
14253;BME280;7210;51.502;10.722;2023-03-18T08:19:34;99185.63;;;10.83;97.26
14253;BME280;7210;51.502;10.722;2023-03-18T08:22:02;99185.00;;;10.92;96.84
14253;BME280;7210;51.502;10.722;2023-03-18T08:24:33;99190.47;;;11.02;96.47
14253;BME280;7210;51.502;10.722;2023-03-18T08:27:02;99178.50;;;11.00;95.80
14253;BME280;7210;51.502;10.722;2023-03-18T08:29:29;99179.41;;;11.05;95.31
14253;BME280;7210;51.502;10.722;2023-03-18T08:31:57;99167.88;;;10.95;94.54
14253;BME280;7210;51.502;10.722;2023-03-18T08:34:25;99166.41;;;10.87;94.19
14253;BME280;7210;51.502;10.722;2023-03-18T08:36:57;99169.03;;;10.87;93.86
14253;BME280;7210;51.502;10.722;2023-03-18T08:39:24;99178.56;;;10.88;93.93
14253;BME280;7210;51.502;10.722;2023-03-18T08:41:54;99182.03;;;10.89;93.87
14253;BME280;7210;51.502;10.722;2023-03-18T08:44:21;99188.69;;;10.91;94.08
14253;BME280;7210;51.502;10.722;2023-03-18T08:46:48;99213.56;;;11.07;94.39
14253;BME280;7210;51.502;10.722;2023-03-18T08:49:15;99227.69;;;11.12;94.45
14253;BME280;7210;51.502;10.722;2023-03-18T08:51:44;99233.94;;;11.22;94.46
14253;BME280;7210;51.502;10.722;2023-03-18T08:54:12;99234.75;;;11.23;94.11
14253;BME280;7210;51.502;10.722;2023-03-18T08:56:39;99244.13;;;11.30;94.19
14253;BME280;7210;51.502;10.722;2023-03-18T08:59:07;99247.19;;;11.39;94.02
14253;BME280;7210;51.502;10.722;2023-03-18T09:01:35;99250.16;;;11.42;93.58
14253;BME280;7210;51.502;10.722;2023-03-18T09:04:02;99243.50;;;11.40;93.49
14253;BME280;7210;51.502;10.722;2023-03-18T09:06:29;99283.56;;;11.76;93.55
14253;BME280;7210;51.502;10.722;2023-03-18T09:08:59;99285.56;;;12.02;92.64
14253;BME280;7210;51.502;10.722;2023-03-18T09:11:26;99264.56;;;12.17;92.12
14253;BME280;7210;51.502;10.722;2023-03-18T09:13:53;99266.25;;;12.45;90.90
14253;BME280;7210;51.502;10.722;2023-03-18T09:16:21;99264.88;;;12.64;89.97
14253;BME280;7210;51.502;10.722;2023-03-18T09:18:48;99270.66;;;13.04;88.68
14253;BME280;7210;51.502;10.722;2023-03-18T09:21:21;99251.22;;;13.25;87.26
14253;BME280;7210;51.502;10.722;2023-03-18T09:23:49;99237.47;;;13.33;86.48
14253;BME280;7210;51.502;10.722;2023-03-18T09:26:18;99221.50;;;13.28;85.92
14253;BME280;7210;51.502;10.722;2023-03-18T09:28:46;99239.69;;;13.41;85.75
14253;BME280;7210;51.502;10.722;2023-03-18T09:31:13;99264.84;;;13.65;84.92
14253;BME280;7210;51.502;10.722;2023-03-18T09:33:41;99227.50;;;13.81;83.90
14253;BME280;7210;51.502;10.722;2023-03-18T09:36:09;99230.47;;;13.90;83.38
14253;BME280;7210;51.502;10.722;2023-03-18T09:38:39;99229.97;;;13.98;82.99
14253;BME280;7210;51.502;10.722;2023-03-18T09:41:27;99266.31;;;14.24;83.47
14253;BME280;7210;51.502;10.722;2023-03-18T09:44:08;99311.22;;;14.62;83.25
14253;BME280;7210;51.502;10.722;2023-03-18T09:47:02;99265.56;;;15.05;80.39
14253;BME280;7210;51.502;10.722;2023-03-18T09:49:51;99216.56;;;15.20;78.55
14253;BME280;7210;51.502;10.722;2023-03-18T09:52:28;99219.28;;;15.30;77.75
14253;BME280;7210;51.502;10.722;2023-03-18T09:55:03;99193.94;;;15.28;77.41
14253;BME280;7210;51.502;10.722;2023-03-18T09:57:39;99198.19;;;15.24;77.06
14253;BME280;7210;51.502;10.722;2023-03-18T10:00:33;99244.84;;;15.36;77.49
14253;BME280;7210;51.502;10.722;2023-03-18T10:03:09;99212.34;;;15.49;76.08
14253;BME280;7210;51.502;10.722;2023-03-18T10:05:46;99222.47;;;15.62;75.21
14253;BME280;7210;51.502;10.722;2023-03-18T10:08:34;99206.47;;;15.72;74.14
14253;BME280;7210;51.502;10.722;2023-03-18T10:11:15;99182.22;;;15.64;73.58
14253;BME280;7210;51.502;10.722;2023-03-18T10:13:55;99203.78;;;15.82;73.36
14253;BME280;7210;51.502;10.722;2023-03-18T10:16:29;99211.25;;;15.85;72.92
14253;BME280;7210;51.502;10.722;2023-03-18T10:18:59;99240.03;;;15.93;72.73
14253;BME280;7210;51.502;10.722;2023-03-18T10:21:39;99221.84;;;16.05;71.80
14253;BME280;7210;51.502;10.722;2023-03-18T10:24:27;99207.75;;;16.00;71.64
14253;BME280;7210;51.502;10.722;2023-03-18T10:27:08;99228.81;;;16.01;71.53
14253;BME280;7210;51.502;10.722;2023-03-18T10:29:56;99258.66;;;16.18;71.38
14253;BME280;7210;51.502;10.722;2023-03-18T10:32:42;99245.34;;;16.08;71.45
14253;BME280;7210;51.502;10.722;2023-03-18T10:35:34;99299.44;;;16.24;71.23
14253;BME280;7210;51.502;10.722;2023-03-18T10:38:11;99264.47;;;16.35;70.17
14253;BME280;7210;51.502;10.722;2023-03-18T10:40:47;99265.00;;;16.37;69.82
14253;BME280;7210;51.502;10.722;2023-03-18T10:43:17;99313.03;;;16.42;70.12
14253;BME280;7210;51.502;10.722;2023-03-18T10:45:52;99310.28;;;16.67;69.05
14253;BME280;7210;51.502;10.722;2023-03-18T10:48:28;99298.50;;;16.78;68.69
14253;BME280;7210;51.502;10.722;2023-03-18T10:51:08;99302.72;;;16.89;68.29
14253;BME280;7210;51.502;10.722;2023-03-18T10:53:45;99298.69;;;16.92;68.11
14253;BME280;7210;51.502;10.722;2023-03-18T10:56:14;99267.41;;;16.97;66.94
14253;BME280;7210;51.502;10.722;2023-03-18T10:58:42;99285.53;;;17.10;66.62
14253;BME280;7210;51.502;10.722;2023-03-18T11:01:14;99307.06;;;17.29;66.50
14253;BME280;7210;51.502;10.722;2023-03-18T11:03:47;99285.91;;;17.37;65.84
14253;BME280;7210;51.502;10.722;2023-03-18T11:06:21;99268.81;;;17.33;65.35
14253;BME280;7210;51.502;10.722;2023-03-18T11:09:01;99229.00;;;17.27;64.45
14253;BME280;7210;51.502;10.722;2023-03-18T11:11:33;99274.16;;;17.28;65.39
14253;BME280;7210;51.502;10.722;2023-03-18T11:14:06;99266.66;;;17.30;65.10
14253;BME280;7210;51.502;10.722;2023-03-18T11:16:39;99279.41;;;17.48;64.10
14253;BME280;7210;51.502;10.722;2023-03-18T11:19:28;99288.84;;;17.69;63.51
14253;BME280;7210;51.502;10.722;2023-03-18T11:22:16;99290.25;;;17.95;62.96
14253;BME280;7210;51.502;10.722;2023-03-18T11:24:45;99281.63;;;18.03;62.62
14253;BME280;7210;51.502;10.722;2023-03-18T11:27:37;99287.22;;;18.07;62.41
14253;BME280;7210;51.502;10.722;2023-03-18T11:30:16;99310.97;;;18.08;62.91
14253;BME280;7210;51.502;10.722;2023-03-18T11:32:54;99257.69;;;18.12;61.90
14253;BME280;7210;51.502;10.722;2023-03-18T11:35:31;99303.53;;;18.34;61.81
14253;BME280;7210;51.502;10.722;2023-03-18T11:38:02;99303.09;;;18.50;61.11
14253;BME280;7210;51.502;10.722;2023-03-18T11:40:33;99285.72;;;18.48;61.06
14253;BME280;7210;51.502;10.722;2023-03-18T11:43:15;99412.75;;;18.89;61.68
14253;BME280;7210;51.502;10.722;2023-03-18T11:45:48;99267.19;;;18.93;59.40
14253;BME280;7210;51.502;10.722;2023-03-18T11:48:31;99264.94;;;19.24;58.77
14253;BME280;7210;51.502;10.722;2023-03-18T11:51:41;99233.44;;;19.11;58.48
14253;BME280;7210;51.502;10.722;2023-03-18T11:54:37;99182.81;;;19.09;58.02
14253;BME280;7210;51.502;10.722;2023-03-18T11:57:13;99184.44;;;19.10;57.57
14253;BME280;7210;51.502;10.722;2023-03-18T11:59:54;99208.78;;;18.95;58.67
14253;BME280;7210;51.502;10.722;2023-03-18T12:02:56;99165.25;;;18.85;57.56
14253;BME280;7210;51.502;10.722;2023-03-18T12:05:38;99180.28;;;18.62;58.47
14253;BME280;7210;51.502;10.722;2023-03-18T12:08:26;99224.22;;;18.61;58.26
14253;BME280;7210;51.502;10.722;2023-03-18T12:11:06;99165.91;;;18.35;58.17
14253;BME280;7210;51.502;10.722;2023-03-18T12:13:49;99195.88;;;18.13;58.86
14253;BME280;7210;51.502;10.722;2023-03-18T12:16:33;99188.91;;;17.89;59.28
14253;BME280;7210;51.502;10.722;2023-03-18T12:22:39;99230.25;;;17.73;59.92
14253;BME280;7210;51.502;10.722;2023-03-18T12:28:27;99310.13;;;17.84;60.17
14253;BME280;7210;51.502;10.722;2023-03-18T12:31:27;99302.06;;;17.89;59.95
14253;BME280;7210;51.502;10.722;2023-03-18T12:34:01;99379.44;;;18.14;60.44
14253;BME280;7210;51.502;10.722;2023-03-18T12:36:53;99315.34;;;18.28;58.70
14253;BME280;7210;51.502;10.722;2023-03-18T12:39:51;99268.19;;;18.37;58.17
14253;BME280;7210;51.502;10.722;2023-03-18T12:42:42;99310.66;;;18.67;58.23
14253;BME280;7210;51.502;10.722;2023-03-18T12:45:18;99315.34;;;18.80;58.08
14253;BME280;7210;51.502;10.722;2023-03-18T12:47:51;99197.75;;;18.60;57.35
14253;BME280;7210;51.502;10.722;2023-03-18T12:50:25;99180.47;;;18.47;56.98
14253;BME280;7210;51.502;10.722;2023-03-18T12:52:59;99224.72;;;18.45;57.85
14253;BME280;7210;51.502;10.722;2023-03-18T12:55:34;99205.56;;;18.56;57.23
14253;BME280;7210;51.502;10.722;2023-03-18T12:58:10;99153.16;;;18.50;56.44
14253;BME280;7210;51.502;10.722;2023-03-18T13:00:43;99153.16;;;18.50;56.30
14253;BME280;7210;51.502;10.722;2023-03-18T13:03:30;99131.88;;;18.40;56.71
14253;BME280;7210;51.502;10.722;2023-03-18T13:06:04;99185.16;;;18.13;56.95
14253;BME280;7210;51.502;10.722;2023-03-18T13:08:55;99219.34;;;17.98;58.48
14253;BME280;7210;51.502;10.722;2023-03-18T13:11:58;99225.88;;;18.10;57.91
14253;BME280;7210;51.502;10.722;2023-03-18T13:14:39;99235.84;;;18.28;57.37
14253;BME280;7210;51.502;10.722;2023-03-18T13:17:13;99201.59;;;18.30;56.94
14253;BME280;7210;51.502;10.722;2023-03-18T13:19:43;99224.50;;;18.41;57.02
14253;BME280;7210;51.502;10.722;2023-03-18T13:22:43;99196.13;;;18.40;56.59
14253;BME280;7210;51.502;10.722;2023-03-18T13:25:23;99163.84;;;18.27;56.74
14253;BME280;7210;51.502;10.722;2023-03-18T13:28:19;99191.47;;;18.22;57.19
14253;BME280;7210;51.502;10.722;2023-03-18T13:31:09;99200.41;;;18.13;57.40
14253;BME280;7210;51.502;10.722;2023-03-18T13:37:26;99202.25;;;17.94;57.76
14253;BME280;7210;51.502;10.722;2023-03-18T13:43:16;99179.19;;;17.74;57.84
14253;BME280;7210;51.502;10.722;2023-03-18T13:45:47;99229.28;;;17.64;58.82
14253;BME280;7210;51.502;10.722;2023-03-18T13:48:19;99266.97;;;17.67;58.70
14253;BME280;7210;51.502;10.722;2023-03-18T13:50:50;99265.84;;;17.73;58.53